LICB/CIY METAR and TAF weather

Enter ICAO airport designator
Station Type Date Time Source
LICB METAR 2020/09/26 11:20 UTC NOAA

LICB 261120Z AUTO 27026G36KT 9999 NCD 22/10 Q1008


Station Type Date Time Source
LICB Decoded METAR 2020/09/26 11:20 UTC NOAA

Comiso As Usaf , Italy (LICB) 36-56N 014-36E
Sep 26, 2020 - 07:20 AM EDT / 2020.09.26 1120 UTC
Wind: from the W (270 degrees) at 30 MPH (26 KT) gusting to 41 MPH (36 KT):0
Visibility: greater than 7 mile(s):0
Temperature: 71 F (22 C)
Dew Point: 50 F (10 C)
Relative Humidity: 46%
Pressure (altimeter): 29.77 in. Hg (1008 hPa)
ob: LICB 261120Z AUTO 27026G36KT 9999 NCD 22/10 Q1008
cycle: 11

Station Type Date Time Source
LICB TAF UTC NOAA

Error!

Example: see airport list